Time;durP1;ratioP1;P1;durP2;ratioP2;P2;SDS_P1;SDS_P2;PMS_P1;PMS_P2;Temp;Humidity;BMP_temperature;BMP_pressure;BME280_temperature;BME280_humidity;BME280_pressure;Samples;Min_cycle;Max_cycle;Signal;HPM_P1;HPM_P2
2021/10/15 00:00:42;;;;;;;43.20;21.95;;;;;;;1.33;100.00;100849.80;1626593;86;21153;-83
2021/10/15 00:03:08;;;;;;;42.38;23.02;;;;;;;1.28;100.00;100849.73;1598683;87;21182;-84
2021/10/15 00:05:36;;;;;;;44.67;21.20;;;;;;;1.28;100.00;100849.73;1600837;87;21070;-81
2021/10/15 00:08:03;;;;;;;46.37;23.38;;;;;;;1.26;100.00;100850.14;1605172;89;21076;-81
2021/10/15 00:10:30;;;;;;;46.30;22.15;;;;;;;1.24;100.00;100847.95;1616308;87;21109;-86
2021/10/15 00:12:56;;;;;;;43.98;21.10;;;;;;;1.23;100.00;100848.82;1614273;86;21152;-81
2021/10/15 00:15:23;;;;;;;26.05;13.90;;;;;;;1.19;100.00;100845.73;1617599;87;21045;-83
2021/10/15 00:17:50;;;;;;;42.85;21.48;;;;;;;1.19;100.00;100853.52;1624161;85;21058;-81
2021/10/15 00:20:16;;;;;;;24.72;11.43;;;;;;;1.19;100.00;100848.33;1623929;87;21107;-82
2021/10/15 00:22:43;;;;;;;32.20;16.75;;;;;;;1.18;100.00;100847.89;1622455;87;21077;-80
2021/10/15 00:25:09;;;;;;;29.20;16.70;;;;;;;1.16;100.00;100845.70;1628280;83;21638;-84
2021/10/15 00:27:36;;;;;;;37.80;17.77;;;;;;;1.14;100.00;100847.41;1623545;85;21076;-84
2021/10/15 00:30:04;;;;;;;34.78;16.37;;;;;;;1.13;100.00;100844.34;1623542;85;21052;-85
2021/10/15 00:32:33;;;;;;;38.27;19.40;;;;;;;1.10;100.00;100839.13;1620733;86;21175;-87
2021/10/15 00:34:59;;;;;;;43.73;20.82;;;;;;;1.07;100.00;100837.80;1626771;86;21294;-79
2021/10/15 00:37:25;;;;;;;38.33;20.82;;;;;;;1.07;100.00;100837.80;1622249;87;22301;-81
2021/10/15 00:39:51;;;;;;;41.33;20.60;;;;;;;1.04;100.00;100833.02;1631297;85;21669;-80
2021/10/15 00:42:18;;;;;;;46.33;23.60;;;;;;;1.01;100.00;100832.98;1626426;85;21094;-82
2021/10/15 00:44:44;;;;;;;40.30;20.12;;;;;;;0.98;100.00;100838.12;1625314;85;20981;-83
2021/10/15 00:47:11;;;;;;;44.35;21.55;;;;;;;0.95;100.00;100827.71;1610467;85;21594;-82
2021/10/15 00:49:38;;;;;;;45.28;22.22;;;;;;;0.91;100.00;100827.22;1622683;87;21753;-84
2021/10/15 00:53:33;;;;;;;36.60;16.80;;;;;;;0.95;100.00;100833.33;1796678;79;22585;-81
2021/10/15 00:56:00;;;;;;;44.00;21.87;;;;;;;0.87;100.00;100830.61;1757255;81;21001;-80
2021/10/15 00:58:27;;;;;;;44.05;21.42;;;;;;;0.87;100.00;100828.45;1756468;81;21119;-78
2021/10/15 01:00:53;;;;;;;36.23;20.37;;;;;;;0.84;100.00;100835.77;1756635;81;21591;-78
2021/10/15 01:03:20;;;;;;;43.25;20.48;;;;;;;0.82;100.00;100832.28;1756519;81;21033;-79
2021/10/15 01:05:48;;;;;;;46.60;22.27;;;;;;;0.80;100.00;100827.48;1752978;81;21040;-80
2021/10/15 01:08:14;;;;;;;41.73;21.17;;;;;;;0.78;100.00;100831.78;1753293;82;20997;-79
2021/10/15 01:10:41;;;;;;;39.25;21.12;;;;;;;0.75;100.00;100833.05;1754453;82;21126;-79
2021/10/15 01:13:07;;;;;;;39.15;20.75;;;;;;;0.75;100.00;100835.64;1754984;82;20942;-80
2021/10/15 01:15:35;;;;;;;44.80;22.73;;;;;;;0.73;100.00;100839.92;1757016;81;20883;-79
2021/10/15 01:18:12;;;;;;;41.37;21.73;;;;;;;0.71;100.00;100835.14;1742084;81;21033;-80
2021/10/15 01:20:38;;;;;;;28.80;15.20;;;;;;;0.69;100.00;100839.42;1725419;83;21076;-79
2021/10/15 01:23:05;;;;;;;25.97;13.58;;;;;;;0.63;100.00;100833.74;1725373;83;21151;-79
2021/10/15 01:25:34;;;;;;;20.62;11.38;;;;;;;0.62;100.00;100838.46;1725481;81;20997;-78
2021/10/15 01:28:02;;;;;;;24.40;13.37;;;;;;;0.58;100.00;100836.27;1725276;81;21550;-79
2021/10/15 01:30:29;;;;;;;26.07;13.43;;;;;;;0.57;100.00;100833.64;1725033;83;21100;-80
2021/10/15 01:32:56;;;;;;;22.75;12.40;;;;;;;0.55;100.00;100836.23;1725116;83;21152;-78
2021/10/15 01:35:22;;;;;;;38.55;19.92;;;;;;;0.53;100.00;100835.34;1725013;83;21133;-80
2021/10/15 01:37:48;;;;;;;24.60;13.43;;;;;;;0.48;100.00;100835.66;1725449;83;21041;-79
2021/10/15 01:40:16;;;;;;;40.92;18.45;;;;;;;0.46;100.00;100827.42;1725197;83;21033;-79
2021/10/15 01:42:55;;;;;;;41.25;19.82;;;;;;;0.44;100.00;100824.83;1725164;83;21022;-78
2021/10/15 01:45:24;;;;;;;42.60;20.57;;;;;;;0.41;100.00;100820.47;1725088;83;21120;-79
2021/10/15 01:47:51;;;;;;;42.47;21.90;;;;;;;0.39;100.00;100820.87;1725630;83;21208;-81
2021/10/15 01:50:18;;;;;;;39.25;20.88;;;;;;;0.38;100.00;100820.83;1724951;83;21006;-80
2021/10/15 01:52:44;;;;;;;42.35;21.85;;;;;;;0.34;100.00;100817.74;1718231;83;21041;-81
2021/10/15 01:55:12;;;;;;;42.10;21.27;;;;;;;0.33;100.00;100823.78;1712686;83;21044;-79
2021/10/15 01:57:41;;;;;;;43.57;20.53;;;;;;;0.29;100.00;100827.17;1713235;83;21069;-79
2021/10/15 02:00:10;;;;;;;42.65;20.00;;;;;;;0.26;100.00;100824.54;1713122;83;21149;-79
2021/10/15 02:02:42;;;;;;;41.83;19.20;;;;;;;0.21;100.00;100820.58;1713118;83;21074;-77
2021/10/15 02:05:12;;;;;;;41.60;20.30;;;;;;;0.16;100.00;100819.20;1692138;83;21018;-78
2021/10/15 02:07:40;;;;;;;51.20;26.57;;;;;;;0.13;100.00;100817.84;1713028;83;21062;-78
2021/10/15 02:10:08;;;;;;;55.85;25.37;;;;;;;0.12;100.00;100822.59;1715233;83;20931;-78
2021/10/15 02:12:35;;;;;;;51.02;24.27;;;;;;;0.11;100.00;100823.42;1715735;83;21153;-78
2021/10/15 02:15:03;;;;;;;49.18;24.95;;;;;;;0.11;100.00;100827.73;1714737;83;21074;-78
2021/10/15 02:17:29;;;;;;;52.70;24.65;;;;;;;0.10;100.00;100832.05;1714845;82;21128;-79
2021/10/15 02:19:56;;;;;;;50.43;25.12;;;;;;;0.10;100.00;100832.05;1713530;83;21026;-79
2021/10/15 02:22:23;;;;;;;51.65;23.92;;;;;;;0.09;100.00;100832.91;1712359;83;21086;-79
2021/10/15 02:24:49;;;;;;;52.55;24.92;;;;;;;0.06;100.00;100840.60;1714034;82;21142;-81
2021/10/15 02:27:16;;;;;;;49.05;24.70;;;;;;;0.03;100.00;100832.80;1714849;82;21073;-81
2021/10/15 02:29:43;;;;;;;53.00;24.43;;;;;;;0.02;100.00;100841.39;1713864;83;21109;-82
2021/10/15 02:32:09;;;;;;;53.23;23.47;;;;;;;0.01;100.00;100846.13;1712706;83;21057;-83
2021/10/15 02:34:35;;;;;;;47.20;24.65;;;;;;;0.01;100.00;100838.80;1712924;83;21599;-82
2021/10/15 02:37:03;;;;;;;56.85;25.92;;;;;;;0.02;100.00;100837.94;1712576;83;21156;-83
2021/10/15 02:39:30;;;;;;;56.08;27.10;;;;;;;0.01;100.00;100833.62;1712288;83;21042;-83
2021/10/15 02:41:56;;;;;;;63.78;28.50;;;;;;;0.03;100.00;100832.80;1712339;83;21156;-83
2021/10/15 02:44:22;;;;;;;69.05;29.00;;;;;;;0.07;100.00;100838.48;1712223;83;21041;-83
2021/10/15 02:46:49;;;;;;;51.95;24.27;;;;;;;0.09;100.00;100837.19;1712086;83;21544;-81
2021/10/15 02:49:16;;;;;;;49.38;22.73;;;;;;;0.08;100.00;100834.16;1712235;83;21148;-82
2021/10/15 02:51:44;;;;;;;31.07;16.10;;;;;;;0.07;100.00;100828.12;1711832;83;21101;-81
2021/10/15 02:54:10;;;;;;;45.90;22.42;;;;;;;0.08;100.00;100818.62;1720512;83;20952;-87
2021/10/15 02:56:37;;;;;;;52.73;24.75;;;;;;;0.07;100.00;100815.17;1720463;80;21133;-85
2021/10/15 02:59:07;;;;;;;52.98;26.12;;;;;;;0.10;100.00;100816.51;1720472;83;21588;-84
2021/10/15 03:01:32;;;;;;;53.95;26.12;;;;;;;0.15;100.00;100818.74;1723219;82;21152;-76
2021/10/15 03:03:59;;;;;;;48.78;22.35;;;;;;;0.23;100.00;100820.19;1721837;83;21041;-85
2021/10/15 03:06:28;;;;;;;49.77;24.10;;;;;;;0.30;100.00;100817.23;1719335;83;21069;-83
2021/10/15 03:08:55;;;;;;;49.20;25.68;;;;;;;0.35;100.00;100820.36;1719357;83;21552;-84
2021/10/15 03:11:21;;;;;;;53.05;27.67;;;;;;;0.43;100.00;100823.50;1719812;82;21088;-85
2021/10/15 03:13:48;;;;;;;53.15;25.90;;;;;;;0.46;100.00;100828.31;1719799;83;21134;-85
2021/10/15 03:16:14;;;;;;;58.08;29.15;;;;;;;0.46;100.00;100820.94;1719275;82;21151;-88
2021/10/15 03:18:41;;;;;;;47.73;25.43;;;;;;;0.48;100.00;100824.00;1719759;83;21045;-88
2021/10/15 03:21:08;;;;;;;52.80;25.30;;;;;;;0.47;100.00;100827.88;1719845;83;21067;-88
2021/10/15 03:23:35;;;;;;;56.63;28.10;;;;;;;0.45;100.00;100819.21;1719794;82;21068;-87
2021/10/15 03:26:02;;;;;;;50.75;25.80;;;;;;;0.46;100.00;100819.25;1719672;83;21485;-86
2021/10/15 03:28:29;;;;;;;54.35;26.73;;;;;;;0.49;100.00;100830.95;1719386;83;21004;-87
2021/10/15 03:30:56;;;;;;;54.30;27.87;;;;;;;0.49;100.00;100825.76;1720141;83;21002;-85
2021/10/15 03:33:22;;;;;;;50.78;26.40;;;;;;;0.49;100.00;100832.67;1719523;83;21049;-85
2021/10/15 03:35:48;;;;;;;57.58;28.23;;;;;;;0.48;100.00;100834.37;1719315;83;21069;-88
2021/10/15 03:38:15;;;;;;;45.70;24.75;;;;;;;0.49;100.00;100829.65;1716305;83;21071;-87
2021/10/15 03:40:41;;;;;;;39.45;18.57;;;;;;;0.53;100.00;100830.15;1718862;83;21041;-82
2021/10/15 03:43:08;;;;;;;41.98;21.00;;;;;;;0.55;100.00;100831.05;1718545;83;21052;-82
2021/10/15 03:45:34;;;;;;;33.28;17.62;;;;;;;0.57;100.00;100828.45;1718797;83;21041;-80
2021/10/15 03:48:01;;;;;;;47.53;24.70;;;;;;;0.59;100.00;100822.44;1718898;83;21096;-81
2021/10/15 03:50:28;;;;;;;31.30;15.75;;;;;;;0.62;100.00;100822.91;1718659;82;21053;-81
2021/10/15 03:52:54;;;;;;;53.92;28.65;;;;;;;0.61;100.00;100825.94;1716069;82;21088;-81
2021/10/15 03:55:20;;;;;;;39.63;21.10;;;;;;;0.62;100.00;100818.62;1712912;82;21060;-81
2021/10/15 03:57:48;;;;;;;32.20;17.42;;;;;;;0.65;100.00;100819.09;1712734;83;21031;-81
2021/10/15 04:00:15;;;;;;;43.58;22.45;;;;;;;0.66;100.00;100825.13;1713065;83;21056;-83
2021/10/15 04:02:46;;;;;;;53.98;26.57;;;;;;;0.67;100.00;100827.76;1712858;83;21858;-81
2021/10/15 04:05:13;;;;;;;53.90;26.57;;;;;;;0.70;100.00;100837.30;1697781;83;21080;-83
2021/10/15 04:07:40;;;;;;;57.98;28.10;;;;;;;0.72;100.00;100838.20;1678500;85;21084;-83
2021/10/15 04:10:08;;;;;;;51.55;27.35;;;;;;;0.72;100.00;100836.90;1678523;85;21137;-82
2021/10/15 04:12:35;;;;;;;50.17;24.82;;;;;;;0.72;100.00;100845.97;1678278;85;21089;-82
2021/10/15 04:15:04;;;;;;;51.20;27.37;;;;;;;0.72;100.00;100852.02;1677894;85;21540;-73
2021/10/15 04:17:30;;;;;;;56.92;29.10;;;;;;;0.75;100.00;100846.01;1693012;84;21089;-74
2021/10/15 04:19:57;;;;;;;54.08;29.00;;;;;;;0.78;100.00;100847.34;1706772;84;21017;-73
2021/10/15 04:22:26;;;;;;;56.40;28.47;;;;;;;0.81;100.00;100848.70;1708589;83;21074;-70
2021/10/15 04:24:53;;;;;;;49.10;24.25;;;;;;;0.86;100.00;100841.84;1708509;82;21085;-72
2021/10/15 04:27:19;;;;;;;38.13;19.87;;;;;;;0.93;100.00;100842.38;1677541;85;21177;-73
2021/10/15 04:29:46;;;;;;;50.35;22.50;;;;;;;0.98;100.00;100843.30;1700712;83;21070;-77
2021/10/15 04:32:14;;;;;;;41.77;20.97;;;;;;;1.05;100.00;100846.42;1677161;85;21065;-77
2021/10/15 04:34:41;;;;;;;39.23;22.48;;;;;;;1.13;100.00;100852.12;1711771;83;21037;-75
2021/10/15 04:37:07;;;;;;;42.75;21.50;;;;;;;1.19;100.00;100855.67;1713021;82;21058;-77
2021/10/15 04:39:33;;;;;;;42.70;23.30;;;;;;;1.30;100.00;100850.63;1712331;83;21082;-74
2021/10/15 04:42:00;;;;;;;48.63;25.08;;;;;;;1.30;100.00;100850.63;1710889;82;21599;-76
2021/10/15 04:44:26;;;;;;;49.05;24.52;;;;;;;1.36;100.00;100847.26;1712838;82;21015;-76
2021/10/15 04:46:52;;;;;;;53.35;25.70;;;;;;;1.40;100.00;100846.42;1713077;82;21109;-70
2021/10/15 04:49:19;;;;;;;45.10;23.57;;;;;;;1.46;100.00;100850.39;1711144;83;21070;-70
2021/10/15 04:51:45;;;;;;;55.10;27.85;;;;;;;1.58;100.00;100861.34;1712170;82;21751;-73
2021/10/15 04:54:11;;;;;;;50.38;25.37;;;;;;;1.58;100.00;100861.34;1712406;82;21664;-72
2021/10/15 04:56:38;;;;;;;50.45;25.00;;;;;;;1.65;100.00;100854.06;1712333;82;21053;-73
2021/10/15 04:59:04;;;;;;;59.58;28.20;;;;;;;1.72;100.00;100859.77;1711965;83;21080;-72
2021/10/15 05:01:33;;;;;;;48.83;26.95;;;;;;;1.78;100.00;100862.44;1702504;83;21081;-72
2021/10/15 05:04:00;;;;;;;56.08;28.55;;;;;;;1.86;100.00;100869.89;1715562;82;21940;-72
2021/10/15 05:06:26;;;;;;;48.78;26.45;;;;;;;1.92;100.00;100864.31;1677652;85;21048;-73
2021/10/15 05:09:13;;;;;;;58.80;28.77;;;;;;;1.99;100.00;100860.91;1711575;82;21053;-72
2021/10/15 05:11:31;;;;;;;48.73;25.60;;;;;;;2.03;100.00;100861.39;1707714;83;21452;-71
2021/10/15 05:13:58;;;;;;;47.05;24.18;;;;;;;2.10;100.00;100860.59;1712038;82;21101;-71
2021/10/15 05:16:25;;;;;;;48.15;25.37;;;;;;;2.15;100.00;100865.39;1709985;82;21906;-71
2021/10/15 05:18:52;;;;;;;46.33;25.72;;;;;;;2.22;100.00;100871.09;1711234;82;21026;-70
2021/10/15 05:21:20;;;;;;;54.18;27.48;;;;;;;2.24;100.00;100860.71;1710168;82;21538;-71
2021/10/15 05:23:47;;;;;;;50.90;26.65;;;;;;;2.28;100.00;100862.05;1709553;82;21038;-71
2021/10/15 05:26:13;;;;;;;54.10;27.50;;;;;;;2.34;100.00;100859.05;1711498;82;21037;-69
2021/10/15 05:28:40;;;;;;;55.75;27.70;;;;;;;2.40;100.00;100868.22;1707391;82;21563;-71
2021/10/15 05:31:06;;;;;;;50.38;25.70;;;;;;;2.45;100.00;100870.42;1708959;83;21097;-70
2021/10/15 05:33:34;;;;;;;51.80;26.73;;;;;;;2.50;100.00;100868.72;1711939;82;21085;-70
2021/10/15 05:36:00;;;;;;;55.12;27.40;;;;;;;2.49;100.00;100872.19;1709288;82;21088;-71
2021/10/15 05:38:27;;;;;;;55.45;28.40;;;;;;;2.48;100.00;100878.23;1708450;83;21007;-70
2021/10/15 05:40:53;;;;;;;60.30;28.95;;;;;;;2.48;100.00;100878.23;1709538;82;21936;-70
2021/10/15 05:43:19;;;;;;;54.38;28.42;;;;;;;2.51;100.00;100873.08;1711229;83;21892;-71
2021/10/15 05:45:46;;;;;;;59.95;32.42;;;;;;;2.68;100.00;100877.95;1721942;80;21590;-71
2021/10/15 05:48:13;;;;;;;56.30;31.33;;;;;;;3.07;100.00;100875.16;1729430;80;21085;-70
2021/10/15 05:50:41;;;;;;;57.35;31.00;;;;;;;3.72;100.00;100870.23;1741058;81;21072;-70
2021/10/15 05:53:11;;;;;;;58.70;30.37;;;;;;;4.44;100.00;100866.44;1740411;80;21227;-72
2021/10/15 06:00:47;;;;;;;43.80;26.48;;;;;;;6.45;100.00;100862.13;1721925;83;21029;-71
2021/10/15 06:03:15;;;;;;;52.05;27.70;;;;;;;6.99;97.92;100855.92;1721788;83;21615;-71
2021/10/15 06:16:16;;;;;;;47.62;28.80;;;;;;;8.90;81.33;100867.19;1727291;81;21083;-71
2021/10/15 06:18:51;;;;;;;50.35;31.80;;;;;;;9.03;79.77;100863.44;1724070;81;21139;-73
2021/10/15 06:21:11;;;;;;;49.47;30.93;;;;;;;8.97;77.74;100862.27;1717442;82;21070;-72
2021/10/15 06:23:37;;;;;;;47.90;30.57;;;;;;;8.91;78.18;100862.37;1722015;81;21067;-73
2021/10/15 06:26:04;;;;;;;51.90;31.37;;;;;;;9.09;77.58;100856.33;1721503;81;21559;-71
2021/10/15 06:28:30;;;;;;;52.75;28.75;;;;;;;9.50;79.10;100854.63;1721261;82;21093;-71
2021/10/15 06:30:57;;;;;;;51.40;28.27;;;;;;;10.03;77.16;100852.58;1721216;81;21541;-71
2021/10/15 06:33:26;;;;;;;55.98;29.42;;;;;;;10.56;74.24;100849.58;1721893;81;21149;-73
2021/10/15 06:35:52;;;;;;;54.40;28.55;;;;;;;10.94;70.93;100853.00;1726371;81;21087;-71
2021/10/15 06:38:19;;;;;;;54.73;29.72;;;;;;;11.19;69.85;100854.05;1722385;82;21601;-73
2021/10/15 06:40:46;;;;;;;52.65;30.45;;;;;;;11.44;68.99;100856.00;1723263;81;20992;-72
2021/10/15 06:43:13;;;;;;;48.40;28.05;;;;;;;11.61;66.77;100855.03;1723550;82;21121;-71
2021/10/15 06:45:39;;;;;;;44.25;27.15;;;;;;;11.72;65.49;100857.36;1722435;81;21087;-72
2021/10/15 06:48:06;;;;;;;42.27;27.30;;;;;;;11.61;64.62;100850.22;1721916;83;21097;-70
2021/10/15 06:50:33;;;;;;;39.90;26.05;;;;;;;11.58;65.90;100855.59;1721083;82;21075;-72
2021/10/15 06:52:59;;;;;;;38.13;25.00;;;;;;;11.83;66.15;100847.34;1721446;81;21051;-72
2021/10/15 06:55:27;;;;;;;44.13;27.85;;;;;;;12.25;64.37;100849.56;1721470;83;21534;-72
2021/10/15 06:57:53;;;;;;;45.78;29.32;;;;;;;12.46;63.20;100849.77;1722189;83;21048;-71
2021/10/15 07:00:19;;;;;;;42.38;27.07;;;;;;;12.57;61.79;100846.31;1721727;82;21064;-73
2021/10/15 07:02:46;;;;;;;47.35;27.80;;;;;;;12.91;62.74;100854.41;1721794;83;21064;-71
2021/10/15 07:05:13;;;;;;;40.48;24.55;;;;;;;13.17;59.20;100847.72;1715271;83;21023;-71
2021/10/15 07:07:40;;;;;;;37.93;22.67;;;;;;;13.41;57.88;100845.11;1721768;83;21713;-72
2021/10/15 07:10:09;;;;;;;39.78;22.07;;;;;;;13.59;56.89;100849.71;1721831;83;21015;-72
2021/10/15 07:12:42;;;;;;;39.92;22.32;;;;;;;13.76;55.40;100844.27;1721677;83;21020;-72
2021/10/15 07:15:13;;;;;;;38.65;22.35;;;;;;;13.74;55.52;100843.45;1718111;81;21140;-71
2021/10/15 07:17:39;;;;;;;39.15;22.85;;;;;;;13.90;55.96;100839.28;1721999;83;21727;-72
2021/10/15 07:20:07;;;;;;;33.13;21.65;;;;;;;14.26;54.65;100838.70;1722168;83;21127;-71
2021/10/15 07:22:35;;;;;;;37.65;20.77;;;;;;;14.62;54.49;100841.64;1721767;83;20976;-72
2021/10/15 07:25:03;;;;;;;32.60;19.70;;;;;;;14.93;53.76;100838.13;1721276;83;21063;-73
2021/10/15 07:27:31;;;;;;;33.98;20.60;;;;;;;15.16;51.89;100834.45;1721577;83;21049;-71
2021/10/15 07:29:57;;;;;;;33.90;19.35;;;;;;;15.06;51.36;100827.38;1721166;83;21610;-71
2021/10/15 07:32:24;;;;;;;35.08;20.15;;;;;;;15.06;52.07;100826.91;1720747;83;21964;-69
2021/10/15 07:34:51;;;;;;;30.95;19.00;;;;;;;15.20;50.63;100826.30;1721454;83;21061;-72
2021/10/15 07:37:18;;;;;;;32.45;19.27;;;;;;;15.31;48.79;100828.47;1722454;83;22203;-72
2021/10/15 07:39:46;;;;;;;36.73;22.85;;;;;;;15.18;48.57;100826.83;1721986;83;21049;-72
2021/10/15 07:42:13;;;;;;;36.20;22.02;;;;;;;15.24;48.33;100825.23;1721413;82;21052;-71
2021/10/15 07:44:39;;;;;;;35.48;20.12;;;;;;;15.47;48.07;100824.17;1720729;81;21645;-70
2021/10/15 07:47:05;;;;;;;41.77;22.80;;;;;;;15.91;48.17;100827.03;1725615;82;21615;-71
2021/10/15 07:49:32;;;;;;;35.33;21.30;;;;;;;16.12;45.87;100823.31;1729970;82;21059;-71
2021/10/15 07:51:58;;;;;;;37.53;20.45;;;;;;;16.19;44.75;100825.69;1729848;82;21048;-70
2021/10/15 07:54:27;;;;;;;34.75;19.75;;;;;;;16.22;43.91;100814.89;1729612;82;21413;-71
2021/10/15 07:56:53;;;;;;;32.90;19.30;;;;;;;16.42;44.09;100813.91;1729568;82;21339;-70
2021/10/15 07:59:20;;;;;;;33.13;19.15;;;;;;;16.38;42.99;100820.30;1729928;82;21052;-72
2021/10/15 08:01:46;;;;;;;36.05;20.10;;;;;;;16.07;43.08;100820.51;1730198;81;21643;-71
2021/10/15 08:04:15;;;;;;;31.00;19.45;;;;;;;15.98;44.22;100816.97;1730993;82;21019;-70
2021/10/15 08:06:43;;;;;;;29.23;17.60;;;;;;;16.15;44.48;100826.32;1734173;82;21636;-71
2021/10/15 08:09:09;;;;;;;27.55;17.70;;;;;;;16.17;44.05;100822.23;1734006;81;21132;-72
2021/10/15 08:11:36;;;;;;;34.88;18.50;;;;;;;16.28;42.95;100818.58;1733811;82;21064;-72
2021/10/15 08:14:02;;;;;;;28.85;19.45;;;;;;;16.37;44.26;100819.45;1734263;81;21543;-71
2021/10/15 08:16:29;;;;;;;30.23;17.52;;;;;;;16.62;43.86;100814.23;1733834;82;21325;-71
2021/10/15 08:18:56;;;;;;;28.10;17.37;;;;;;;16.90;42.09;100805.70;1734203;82;21052;-71
2021/10/15 08:21:22;;;;;;;29.42;18.32;;;;;;;16.83;41.24;100815.80;1733715;81;21096;-71
2021/10/15 08:23:48;;;;;;;27.60;17.55;;;;;;;16.62;41.96;100802.27;1733800;81;21053;-72
2021/10/15 08:26:16;;;;;;;29.40;17.57;;;;;;;16.40;41.73;100804.67;1733825;82;21115;-72
2021/10/15 08:28:45;;;;;;;30.30;17.57;;;;;;;16.07;42.24;100807.22;1733980;82;21586;-71
2021/10/15 08:31:12;;;;;;;30.60;18.25;;;;;;;15.92;42.54;100806.19;1734084;81;21326;-71
2021/10/15 08:33:40;;;;;;;28.80;17.62;;;;;;;15.93;43.06;100807.89;1734260;82;21492;-72
2021/10/15 08:36:07;;;;;;;24.80;17.02;;;;;;;15.81;43.69;100805.84;1733862;82;21132;-71
2021/10/15 08:38:33;;;;;;;27.42;17.30;;;;;;;16.28;43.10;100795.99;1733751;82;21571;-71
2021/10/15 08:41:00;;;;;;;24.43;15.78;;;;;;;16.49;41.90;100790.91;1733768;81;21076;-71
2021/10/15 08:43:39;;;;;;;28.38;17.12;;;;;;;16.40;41.42;100796.69;1734090;81;21113;-72
2021/10/15 08:46:06;;;;;;;28.42;16.17;;;;;;;15.93;42.39;100792.81;1734087;82;22053;-70
2021/10/15 08:48:38;;;;;;;23.52;15.55;;;;;;;15.88;43.01;100793.98;1728449;81;21168;-71
2021/10/15 08:51:04;;;;;;;25.25;15.80;;;;;;;15.86;42.91;100791.39;1700650;83;21062;-72
2021/10/15 08:53:31;;;;;;;26.65;17.17;;;;;;;16.03;43.30;100790.55;1728694;81;21066;-70
2021/10/15 08:55:59;;;;;;;29.42;16.48;;;;;;;16.45;43.30;100785.83;1728672;83;21559;-73
2021/10/15 08:58:52;;;;;;;30.57;16.65;;;;;;;16.83;42.91;100776.37;1728605;83;21185;-69
2021/10/15 09:01:19;;;;;;;22.80;15.80;;;;;;;17.27;41.30;100773.98;1728251;83;21720;-71
2021/10/15 09:03:46;;;;;;;22.42;15.60;;;;;;;17.64;40.27;100769.27;1728986;82;21038;-70
2021/10/15 09:06:13;;;;;;;26.80;15.05;;;;;;;17.74;38.66;100769.16;1728729;82;21044;-72
2021/10/15 09:08:53;;;;;;;26.62;15.53;;;;;;;17.35;38.38;100771.77;1728748;83;21148;-72
2021/10/15 09:11:40;;;;;;;21.77;13.40;;;;;;;17.22;39.09;100777.37;1750561;81;21108;-71
2021/10/15 09:14:23;;;;;;;25.30;14.28;;;;;;;17.31;39.37;100776.86;1758969;81;21105;-71
2021/10/15 09:17:11;;;;;;;23.55;12.58;;;;;;;17.39;38.57;100769.33;1758832;81;21074;-71
2021/10/15 09:19:41;;;;;;;17.20;11.38;;;;;;;17.49;38.79;100769.67;1745353;80;21060;-72
2021/10/15 09:22:21;;;;;;;21.62;11.80;;;;;;;17.52;37.87;100764.16;1743169;80;21700;-70
2021/10/15 09:24:53;;;;;;;18.50;11.80;;;;;;;17.82;37.35;100761.60;1758706;81;21062;-71
2021/10/15 09:27:41;;;;;;;19.85;11.55;;;;;;;18.03;36.39;100758.64;1722643;83;21572;-71
2021/10/15 09:30:14;;;;;;;19.25;11.83;;;;;;;17.80;36.19;100758.13;1721253;83;21709;-72
2021/10/15 09:32:48;;;;;;;16.82;11.60;;;;;;;17.30;36.96;100755.20;1722444;83;21145;-72
2021/10/15 09:35:18;;;;;;;15.45;10.68;;;;;;;17.20;37.19;100759.29;1722470;83;21056;-71
2021/10/15 09:37:47;;;;;;;17.45;10.43;;;;;;;17.16;37.34;100755.07;1723129;83;21098;-71
2021/10/15 09:40:17;;;;;;;17.40;10.72;;;;;;;17.44;37.56;100751.77;1722362;83;21423;-71
2021/10/15 09:42:51;;;;;;;19.15;10.28;;;;;;;17.55;35.93;100748.03;1721982;81;21091;-71
2021/10/15 09:45:25;;;;;;;17.37;10.43;;;;;;;17.27;36.67;100750.50;1722734;83;21033;-72
2021/10/15 09:47:55;;;;;;;16.23;10.23;;;;;;;16.98;36.85;100749.82;1720625;83;21060;-70
2021/10/15 09:50:24;;;;;;;19.60;10.65;;;;;;;16.91;37.10;100739.13;1718855;83;21179;-72
2021/10/15 09:52:55;;;;;;;19.42;11.80;;;;;;;16.72;36.90;100742.33;1719089;83;21044;-70
2021/10/15 09:55:34;;;;;;;20.50;10.43;;;;;;;16.72;37.48;100738.34;1718985;83;21060;-70
2021/10/15 09:58:17;;;;;;;17.12;10.43;;;;;;;17.14;37.07;100731.22;1718507;83;21095;-71
2021/10/15 10:00:45;;;;;;;18.23;10.23;;;;;;;17.28;35.75;100729.61;1719130;83;21563;-70
2021/10/15 10:03:13;;;;;;;16.50;9.75;;;;;;;17.23;37.10;100720.55;1719325;83;21103;-71
2021/10/15 10:05:40;;;;;;;15.95;9.95;;;;;;;17.29;36.12;100720.19;1698862;83;21056;-71
2021/10/15 10:08:06;;;;;;;18.80;8.48;;;;;;;17.28;36.16;100726.47;1690331;84;21093;-71
2021/10/15 10:10:36;;;;;;;13.55;9.08;;;;;;;17.12;35.52;100710.48;1719491;83;21081;-72
2021/10/15 10:13:06;;;;;;;14.85;9.50;;;;;;;17.20;35.63;100708.23;1719279;82;21041;-72
2021/10/15 10:15:37;;;;;;;12.03;7.60;;;;;;;16.99;35.60;100704.96;1719309;83;21086;-71
2021/10/15 10:21:06;;;;;;;10.72;6.22;;;;;;;16.72;34.75;100703.77;1687871;84;21065;-71
2021/10/15 10:23:47;;;;;;;17.45;6.62;;;;;;;16.74;33.91;100703.21;1685963;84;21148;-71
2021/10/15 10:26:21;;;;;;;14.45;7.20;;;;;;;16.69;33.51;100695.95;1690065;84;21060;-71
2021/10/15 10:29:04;;;;;;;11.00;6.80;;;;;;;16.60;34.20;100695.12;1689438;84;21101;-70
2021/10/15 10:31:32;;;;;;;14.45;6.20;;;;;;;16.80;34.75;100690.95;1689921;84;21121;-71
2021/10/15 10:34:06;;;;;;;10.13;5.30;;;;;;;16.90;34.76;100685.52;1689793;84;21065;-71
2021/10/15 10:36:35;;;;;;;12.53;5.78;;;;;;;17.16;35.62;100684.55;1689809;84;21121;-72
2021/10/15 10:39:23;;;;;;;8.97;5.27;;;;;;;17.41;34.11;100681.36;1693502;83;21073;-72
2021/10/15 10:42:10;;;;;;;9.78;5.83;;;;;;;17.34;32.10;100683.99;1690040;83;21583;-70
2021/10/15 10:44:57;;;;;;;11.45;5.37;;;;;;;17.14;32.25;100681.14;1689746;84;21058;-76
2021/10/15 10:47:25;;;;;;;8.03;4.80;;;;;;;16.98;32.35;100672.66;1661343;84;21117;-80
2021/10/15 10:50:09;;;;;;;9.15;5.25;;;;;;;17.34;32.88;100675.52;1687428;84;21108;-77
2021/10/15 10:52:53;;;;;;;15.98;5.62;;;;;;;17.56;31.52;100672.99;1682570;84;21114;-80
2021/10/15 10:55:47;;;;;;;8.50;5.00;;;;;;;17.33;32.83;100664.98;1677644;84;21524;-81
2021/10/15 10:58:33;;;;;;;14.78;5.80;;;;;;;17.49;33.92;100672.48;1684805;84;20957;-83
2021/10/15 11:01:24;;;;;;;9.58;5.78;;;;;;;17.63;32.42;100666.36;1700879;83;21055;-76
2021/10/15 11:03:50;;;;;;;8.88;5.85;;;;;;;17.76;31.32;100663.38;1715340;83;21066;-77
2021/10/15 11:06:17;;;;;;;9.08;5.80;;;;;;;17.79;32.47;100659.19;1701163;83;21011;-79
2021/10/15 11:08:46;;;;;;;11.45;5.85;;;;;;;17.97;32.47;100660.43;1659906;83;22058;-80
2021/10/15 11:11:33;;;;;;;15.80;5.53;;;;;;;18.10;31.24;100657.39;1698143;83;21602;-82
2021/10/15 11:13:55;;;;;;;10.23;6.50;;;;;;;17.88;31.57;100659.64;1724071;82;21067;-83
2021/10/15 11:16:25;;;;;;;13.05;5.47;;;;;;;17.76;33.28;100660.70;1701992;83;21122;-86
2021/10/15 11:18:53;;;;;;;12.00;6.40;;;;;;;17.64;32.30;100659.22;1720048;83;21033;-79
2021/10/15 11:21:20;;;;;;;9.45;6.03;;;;;;;17.48;32.70;100663.23;1680355;84;21054;-78
2021/10/15 11:23:47;;;;;;;9.25;5.87;;;;;;;17.44;32.72;100649.27;1696729;84;21132;-74
2021/10/15 11:26:14;;;;;;;10.98;6.17;;;;;;;17.34;32.28;100656.89;1697000;84;21609;-74
2021/10/15 11:28:41;;;;;;;11.03;5.78;;;;;;;17.04;32.76;100646.17;1707913;83;21077;-75
2021/10/15 11:31:11;;;;;;;9.80;5.50;;;;;;;16.81;32.79;100652.77;1727262;83;21096;-75
2021/10/15 11:33:39;;;;;;;11.45;6.28;;;;;;;16.46;33.60;100648.00;1714277;83;21819;-75
2021/10/15 11:36:08;;;;;;;10.93;6.50;;;;;;;16.32;34.26;100640.28;1727408;83;21080;-78
2021/10/15 11:38:34;;;;;;;10.93;6.30;;;;;;;16.25;33.82;100640.69;1714128;83;21076;-77